Time;durP1;ratioP1;P1;durP2;ratioP2;P2;SDS_P1;SDS_P2;PMS_P1;PMS_P2;Temp;Humidity;BMP_temperature;BMP_pressure;BME280_temperature;BME280_humidity;BME280_pressure;Samples;Min_cycle;Max_cycle;Signal;HPM_P1;HPM_P2
2021/07/13 00:00:38;;;;;;;9.83;8.93;;;;;;;24.18;60.74;94822.38;5073592;28;21158;-86
2021/07/13 00:03:07;;;;;;;10.87;9.77;;;;;;;24.22;60.39;94822.75;5021892;28;20493;-86
2021/07/13 00:05:35;;;;;;;12.70;10.63;;;;;;;24.22;59.98;94828.94;5073479;28;20461;-85
2021/07/13 00:08:02;;;;;;;11.43;10.07;;;;;;;24.30;59.67;94827.91;5073292;28;20486;-85
2021/07/13 00:10:32;;;;;;;18.80;10.33;;;;;;;24.35;59.60;94826.22;5038322;28;21174;-86
2021/07/13 00:13:00;;;;;;;11.43;10.20;;;;;;;24.37;59.38;94836.75;5073199;28;20438;-85
2021/07/13 00:15:29;;;;;;;14.73;10.50;;;;;;;24.33;59.23;94832.84;5073180;28;20436;-86
2021/07/13 00:17:59;;;;;;;12.53;11.33;;;;;;;24.17;59.74;94822.59;5073018;28;20435;-87
2021/07/13 00:20:27;;;;;;;12.30;10.23;;;;;;;24.09;60.58;94827.16;5073389;28;20481;-86
2021/07/13 00:22:55;;;;;;;11.53;10.50;;;;;;;24.08;60.65;94838.94;5072991;28;20638;-85
2021/07/13 00:25:22;;;;;;;11.67;10.50;;;;;;;24.05;60.91;94842.06;5073498;28;20565;-86
2021/07/13 00:27:50;;;;;;;12.50;11.20;;;;;;;24.06;60.68;94853.59;5073832;28;20451;-86
2021/07/13 00:30:19;;;;;;;11.73;9.97;;;;;;;24.01;60.77;94845.38;5073085;28;20473;-86
2021/07/13 00:32:46;;;;;;;11.77;10.60;;;;;;;24.08;60.83;94846.16;5072831;28;20488;-86
2021/07/13 00:35:15;;;;;;;12.63;11.33;;;;;;;24.10;60.44;94852.13;5076563;28;20485;-86
2021/07/13 00:37:43;;;;;;;10.90;9.93;;;;;;;24.17;61.03;94849.41;5077147;28;20449;-85
2021/07/13 00:40:12;;;;;;;11.23;10.20;;;;;;;24.23;61.10;94844.00;5076894;28;20911;-86
2021/07/13 00:46:04;;;;;;;11.03;10.03;;;;;;;24.21;60.90;94848.75;5076748;28;20473;-86
2021/07/13 00:48:31;;;;;;;11.87;10.30;;;;;;;24.20;60.90;94846.28;5076678;28;20440;-85
2021/07/13 00:51:03;;;;;;;12.30;11.20;;;;;;;24.21;60.68;94850.63;5041574;28;20446;-86
2021/07/13 00:53:30;;;;;;;11.43;10.43;;;;;;;24.19;61.15;94847.31;5026441;28;20478;-85
2021/07/13 00:55:57;;;;;;;11.70;10.57;;;;;;;24.20;61.02;94848.97;5076533;28;20446;-85
2021/07/13 00:58:25;;;;;;;11.77;10.67;;;;;;;24.20;60.49;94854.34;5076593;28;20768;-85
2021/07/13 01:00:52;;;;;;;10.90;10.00;;;;;;;24.21;60.81;94845.25;5076488;28;20435;-86
2021/07/13 01:03:19;;;;;;;15.60;10.57;;;;;;;24.23;60.60;94851.22;5076066;28;20484;-85
2021/07/13 01:05:50;;;;;;;15.20;10.90;;;;;;;24.24;60.58;94850.19;5041324;28;21059;-85
2021/07/13 01:08:30;;;;;;;11.80;10.70;;;;;;;24.17;61.00;94834.13;5076374;28;20843;-85
2021/07/13 01:11:07;;;;;;;12.30;11.10;;;;;;;24.13;60.80;94834.78;5076320;28;20510;-85
2021/07/13 01:13:40;;;;;;;12.00;10.90;;;;;;;24.08;61.55;94841.63;5076816;28;20489;-86
2021/07/13 01:16:13;;;;;;;13.03;11.70;;;;;;;23.96;62.06;94832.59;5076273;28;20435;-86
2021/07/13 01:18:46;;;;;;;12.70;11.33;;;;;;;23.92;62.51;94836.75;5076298;28;20782;-85
2021/07/13 01:21:43;;;;;;;11.70;10.60;;;;;;;23.91;62.43;94829.72;5075898;28;20434;-86
2021/07/13 01:24:54;;;;;;;13.77;12.17;;;;;;;23.77;62.45;94829.00;5075821;28;20432;-86
2021/07/13 01:28:00;;;;;;;13.70;11.47;;;;;;;23.78;63.31;94829.81;5075713;28;20456;-85
2021/07/13 01:30:30;;;;;;;12.97;11.57;;;;;;;23.77;63.25;94830.84;4994510;28;20537;-86
2021/07/13 01:33:00;;;;;;;13.40;10.60;;;;;;;23.83;63.13;94832.66;4994524;28;20430;-85
2021/07/13 01:35:32;;;;;;;11.60;10.50;;;;;;;23.88;62.80;94845.44;4994152;28;20466;-86
2021/07/13 01:38:02;;;;;;;12.80;11.63;;;;;;;23.87;62.53;94849.97;4994556;28;20479;-87
2021/07/13 01:40:31;;;;;;;16.17;11.23;;;;;;;23.67;63.26;94849.22;4961895;28;20445;-86
2021/07/13 01:43:00;;;;;;;13.97;11.40;;;;;;;23.55;63.63;94856.25;4994392;28;20454;-86
2021/07/13 01:45:28;;;;;;;11.57;10.57;;;;;;;23.53;64.24;94843.06;4993627;28;20477;-86
2021/07/13 01:47:55;;;;;;;12.23;11.10;;;;;;;23.60;63.95;94843.06;4994085;28;20471;-86
2021/07/13 01:53:44;;;;;;;13.20;11.23;;;;;;;23.58;64.04;94853.16;4994014;28;20853;-86
2021/07/13 01:56:12;;;;;;;13.60;12.20;;;;;;;23.57;64.24;94851.53;4993889;28;20457;-86
2021/07/13 01:58:43;;;;;;;12.97;11.73;;;;;;;23.57;64.36;94844.31;4994002;28;20845;-85
2021/07/13 02:01:13;;;;;;;13.30;11.83;;;;;;;23.57;64.45;94851.53;5031242;28;20446;-86
2021/07/13 02:03:41;;;;;;;20.63;12.13;;;;;;;23.55;64.57;94834.81;5075423;28;20909;-85
2021/07/13 02:06:09;;;;;;;13.87;12.53;;;;;;;23.47;64.69;94847.41;5074930;28;20499;-86
2021/07/13 02:08:38;;;;;;;12.13;10.93;;;;;;;23.47;65.14;94844.72;5024390;28;20454;-86
2021/07/13 02:11:07;;;;;;;13.20;12.00;;;;;;;23.52;64.54;94846.78;5075762;28;20429;-86
2021/07/13 02:13:34;;;;;;;14.60;13.00;;;;;;;23.55;64.74;94856.25;5023972;28;20449;-86
2021/07/13 02:16:04;;;;;;;14.00;12.10;;;;;;;23.52;64.97;94843.28;5075144;28;20466;-86
2021/07/13 02:18:31;;;;;;;14.43;12.30;;;;;;;23.43;65.05;94843.50;5074901;28;20433;-86
2021/07/13 02:20:58;;;;;;;15.20;11.63;;;;;;;23.39;65.01;94839.56;4990966;28;21312;-86
2021/07/13 02:36:57;;;;;;;13.40;12.03;;;;;;;22.90;68.23;94849.97;5073656;28;20473;-86
2021/07/13 02:39:25;;;;;;;14.70;13.20;;;;;;;22.86;68.33;94846.91;5074854;28;20428;-86
2021/07/13 02:41:54;;;;;;;14.03;12.57;;;;;;;22.77;68.85;94853.44;5074489;28;20533;-86
2021/07/13 02:44:23;;;;;;;15.40;13.30;;;;;;;22.82;69.07;94856.34;5074693;28;20458;-86
2021/07/13 02:46:51;;;;;;;15.27;12.40;;;;;;;22.83;68.74;94856.13;5074782;28;20518;-86
2021/07/13 02:49:21;;;;;;;14.53;13.17;;;;;;;22.74;69.02;94851.16;5074336;28;21042;-86
2021/07/13 02:51:51;;;;;;;15.00;13.50;;;;;;;22.77;68.87;94854.25;5028810;28;20521;-87
2021/07/13 02:54:22;;;;;;;13.87;12.57;;;;;;;22.78;68.91;94849.72;5080736;28;20931;-87
2021/07/13 02:56:50;;;;;;;14.63;13.13;;;;;;;22.77;68.79;94854.25;5073544;28;20859;-86
2021/07/13 02:59:19;;;;;;;12.80;11.50;;;;;;;22.75;69.08;94850.13;5074327;28;20438;-86
2021/07/13 03:01:46;;;;;;;15.20;13.60;;;;;;;22.71;68.80;94849.72;5074004;28;20448;-86
2021/07/13 03:37:53;;;;;;;14.17;12.67;;;;;;;23.40;66.13;94854.63;5071409;28;20819;-86
2021/07/13 03:40:21;;;;;;;18.40;11.67;;;;;;;23.61;65.50;94856.25;5074485;28;20436;-86
2021/07/13 03:42:50;;;;;;;12.23;11.10;;;;;;;23.90;64.73;94854.91;5073623;28;20431;-86
2021/07/13 03:45:18;;;;;;;13.40;12.10;;;;;;;24.16;63.68;94855.81;5073379;28;20475;-86
2021/07/13 03:47:48;;;;;;;13.10;11.83;;;;;;;24.47;62.72;94850.47;5073401;28;20437;-86
2021/07/13 04:00:23;;;;;;;17.53;13.03;;;;;;;25.42;58.41;94866.44;5073362;28;20427;-86
2021/07/13 04:02:50;;;;;;;17.67;12.13;;;;;;;25.16;58.43;94868.38;5021834;28;20432;-86
2021/07/13 04:05:17;;;;;;;13.10;11.53;;;;;;;24.96;58.85;94873.03;5073393;28;20478;-85
2021/07/13 04:07:44;;;;;;;14.07;12.73;;;;;;;25.14;59.09;94866.91;5039488;28;20527;-86
2021/07/13 04:10:14;;;;;;;14.33;11.80;;;;;;;25.44;58.46;94867.03;5077601;28;20450;-86
2021/07/13 04:12:41;;;;;;;13.93;11.80;;;;;;;25.76;57.06;94855.16;5025902;28;20441;-85
2021/07/13 04:15:10;;;;;;;13.50;12.13;;;;;;;25.92;56.65;94865.28;5025709;28;20436;-85
2021/07/13 04:17:38;;;;;;;17.70;14.10;;;;;;;25.89;56.79;94864.91;5077086;28;20437;-86
2021/07/13 04:20:07;;;;;;;15.60;13.27;;;;;;;25.81;57.34;94857.16;5077292;28;20444;-86
2021/07/13 04:22:35;;;;;;;21.90;13.40;;;;;;;26.04;56.92;94860.00;5025495;28;20424;-86
2021/07/13 04:25:02;;;;;;;14.00;12.13;;;;;;;26.30;56.62;94861.47;5077135;28;20431;-84
2021/07/13 04:27:30;;;;;;;12.17;11.07;;;;;;;26.67;55.80;94856.03;5076954;28;20528;-77
2021/07/13 04:29:56;;;;;;;17.90;12.03;;;;;;;27.13;53.86;94861.50;5076929;28;20433;-84
2021/07/13 04:32:23;;;;;;;12.07;10.80;;;;;;;27.48;52.94;94849.94;5025289;28;20441;-83
2021/07/13 04:34:52;;;;;;;15.23;12.33;;;;;;;27.81;52.18;94853.91;5025356;28;20439;-82
2021/07/13 04:37:19;;;;;;;13.47;12.00;;;;;;;27.80;50.99;94849.56;5076653;28;20832;-82
2021/07/13 04:39:46;;;;;;;17.47;13.40;;;;;;;27.97;51.44;94847.75;5076379;28;20442;-82
2021/07/13 04:42:12;;;;;;;14.10;12.40;;;;;;;27.84;50.53;94845.34;5076882;28;20428;-82
2021/07/13 04:44:39;;;;;;;16.17;12.83;;;;;;;27.90;50.85;94839.81;5076209;28;20995;-83
2021/07/13 04:47:06;;;;;;;13.80;12.60;;;;;;;27.72;51.20;94846.16;5076053;28;20479;-81
2021/07/13 04:49:33;;;;;;;13.77;12.50;;;;;;;27.45;52.90;94842.28;5076321;28;20516;-79
2021/07/13 04:52:03;;;;;;;14.97;13.40;;;;;;;27.48;52.36;94833.75;5076416;28;20516;-79
2021/07/13 04:54:33;;;;;;;14.67;13.27;;;;;;;27.64;52.20;94835.75;5076005;28;20973;-80
2021/07/13 04:57:00;;;;;;;15.27;13.13;;;;;;;27.90;52.22;94834.41;5076559;28;20448;-83
2021/07/13 04:59:27;;;;;;;14.50;12.83;;;;;;;28.37;50.68;94835.09;5076867;28;20459;-80
2021/07/13 05:01:54;;;;;;;14.43;12.77;;;;;;;28.86;49.88;94837.31;5076474;28;20447;-82
2021/07/13 05:04:21;;;;;;;22.93;12.43;;;;;;;29.18;50.69;94837.53;5075723;28;20913;-82
2021/07/13 05:06:48;;;;;;;16.00;14.27;;;;;;;29.27;48.64;94838.78;5076618;28;20568;-82
2021/07/13 05:09:17;;;;;;;13.60;11.80;;;;;;;29.48;47.95;94840.72;5075939;28;20524;-81
2021/07/13 05:11:43;;;;;;;15.70;13.00;;;;;;;29.50;47.66;94838.63;5076113;28;20436;-81
2021/07/13 05:14:10;;;;;;;13.07;11.70;;;;;;;29.72;47.95;94843.22;5041233;28;20468;-81
2021/07/13 05:16:37;;;;;;;13.10;11.83;;;;;;;29.96;46.25;94841.09;5075931;28;20459;-80
2021/07/13 05:19:06;;;;;;;13.03;11.83;;;;;;;30.16;45.99;94842.22;5075202;28;20437;-80
2021/07/13 05:21:33;;;;;;;13.20;11.90;;;;;;;30.30;45.29;94842.63;5075975;28;20451;-80
2021/07/13 05:24:00;;;;;;;12.90;11.60;;;;;;;30.46;45.32;94849.03;5075889;28;20830;-82
2021/07/13 05:26:29;;;;;;;16.27;12.70;;;;;;;30.43;45.75;94852.25;5075771;28;20472;-81
2021/07/13 05:29:00;;;;;;;16.87;13.00;;;;;;;30.20;45.41;94850.63;5024754;28;20939;-81
2021/07/13 05:31:27;;;;;;;17.63;13.73;;;;;;;29.99;46.42;94849.53;5075771;28;20521;-81
2021/07/13 05:33:57;;;;;;;17.53;14.10;;;;;;;29.59;48.07;94853.34;5075732;28;20421;-81
2021/07/13 05:36:24;;;;;;;19.73;13.23;;;;;;;29.30;48.82;94846.41;5075457;28;20429;-81
2021/07/13 05:38:53;;;;;;;27.43;12.23;;;;;;;29.23;49.27;94840.34;5075252;28;20429;-81
2021/07/13 05:41:21;;;;;;;19.40;14.73;;;;;;;29.03;49.58;94840.84;5075289;28;20440;-82
2021/07/13 05:43:49;;;;;;;21.20;16.33;;;;;;;28.69;50.20;94829.19;5075687;28;20444;-83
2021/07/13 05:46:17;;;;;;;24.20;14.40;;;;;;;28.88;50.75;94837.88;5075102;28;20512;-83
2021/07/13 05:48:44;;;;;;;21.93;15.60;;;;;;;29.05;49.59;94840.59;5076027;28;20448;-82
2021/07/13 05:51:11;;;;;;;21.70;14.57;;;;;;;28.99;48.86;94847.81;5075417;28;20431;-82
2021/07/13 05:53:38;;;;;;;14.40;12.77;;;;;;;29.15;49.93;94846.97;5075617;28;20787;-81
2021/07/13 05:56:07;;;;;;;13.57;11.80;;;;;;;29.49;49.07;94847.81;5075502;28;20958;-82
2021/07/13 05:58:34;;;;;;;17.63;13.33;;;;;;;29.72;48.50;94848.63;5075275;28;20433;-81
2021/07/13 06:01:03;;;;;;;20.87;15.13;;;;;;;29.85;47.54;94851.00;5075127;28;20447;-81
2021/07/13 06:03:30;;;;;;;16.30;13.97;;;;;;;30.16;47.62;94844.91;5040230;28;20523;-80
2021/07/13 06:05:58;;;;;;;19.37;13.50;;;;;;;30.42;47.47;94850.63;5040035;28;21386;-81
2021/07/13 06:08:25;;;;;;;15.07;13.17;;;;;;;30.71;46.72;94851.22;5074668;28;20432;-81
2021/07/13 06:10:52;;;;;;;18.43;13.63;;;;;;;30.92;45.34;94852.19;5075189;28;20512;-81
2021/07/13 06:13:19;;;;;;;17.47;13.73;;;;;;;31.12;44.66;94850.50;5074849;28;20523;-81
2021/07/13 06:15:47;;;;;;;17.10;13.50;;;;;;;31.33;44.03;94851.50;5039742;28;20456;-81
2021/07/13 06:18:18;;;;;;;27.07;12.63;;;;;;;31.43;43.05;94843.44;5074656;28;20437;-82
2021/07/13 06:20:45;;;;;;;14.83;13.37;;;;;;;31.74;43.67;94846.34;5074949;28;20445;-81
2021/07/13 06:23:12;;;;;;;16.70;13.73;;;;;;;31.98;41.22;94844.84;5074318;28;20928;-81
2021/07/13 06:25:39;;;;;;;17.60;13.30;;;;;;;31.99;41.16;94843.78;5075398;28;20525;-81
2021/07/13 06:28:07;;;;;;;14.80;12.50;;;;;;;32.24;41.67;94845.78;5039727;28;20516;-81
2021/07/13 06:30:35;;;;;;;16.90;13.23;;;;;;;32.25;42.03;94844.72;5023089;28;20789;-81
2021/07/13 06:33:02;;;;;;;21.33;13.07;;;;;;;32.01;42.39;94846.22;5074200;28;20429;-80
2021/07/13 06:35:30;;;;;;;18.40;13.10;;;;;;;32.00;41.85;94848.13;5074185;28;20535;-81
2021/07/13 06:37:59;;;;;;;18.83;13.70;;;;;;;31.92;42.71;94847.81;5074495;28;20499;-81
2021/07/13 06:40:26;;;;;;;19.33;13.37;;;;;;;31.21;43.23;94853.56;5074431;28;20429;-81
2021/07/13 06:42:53;;;;;;;16.73;14.50;;;;;;;30.39;44.38;94845.72;5074369;28;20436;-81
2021/07/13 06:45:20;;;;;;;24.33;13.60;;;;;;;30.68;44.96;94847.13;5074147;28;20524;-82
2021/07/13 06:47:48;;;;;;;16.07;13.80;;;;;;;30.87;44.78;94844.03;5074236;28;20475;-82
2021/07/13 06:50:15;;;;;;;21.13;13.23;;;;;;;31.04;43.86;94844.72;5074414;28;20437;-81
2021/07/13 06:52:43;;;;;;;18.33;12.90;;;;;;;31.26;43.94;94850.91;5074459;28;20429;-81
2021/07/13 06:55:12;;;;;;;16.93;12.87;;;;;;;31.59;43.31;94848.97;5073753;28;20432;-82
2021/07/13 06:57:39;;;;;;;13.00;11.73;;;;;;;31.99;44.04;94854.63;5022736;28;20463;-81
2021/07/13 07:00:08;;;;;;;15.27;13.00;;;;;;;32.30;42.60;94841.19;5073652;28;20451;-82
2021/07/13 07:02:35;;;;;;;16.67;12.50;;;;;;;32.47;40.51;94839.09;5073725;28;20435;-81
2021/07/13 07:05:02;;;;;;;16.77;12.23;;;;;;;32.58;39.10;94835.28;5073898;28;21082;-81
2021/07/13 07:07:29;;;;;;;13.87;12.47;;;;;;;32.45;38.97;94833.09;5073995;28;20516;-81
2021/07/13 07:09:57;;;;;;;19.50;12.87;;;;;;;32.38;40.61;94832.53;5074254;28;20476;-81
2021/07/13 07:12:24;;;;;;;16.03;13.30;;;;;;;32.48;40.70;94843.44;5073839;28;20448;-81
2021/07/13 07:14:51;;;;;;;14.00;12.50;;;;;;;32.70;40.20;94842.41;5073794;28;20437;-82
2021/07/13 07:17:18;;;;;;;15.30;12.57;;;;;;;32.87;38.91;94832.94;5038799;28;20429;-81
2021/07/13 07:19:45;;;;;;;20.47;14.00;;;;;;;32.80;39.38;94823.41;5073687;28;20445;-81
2021/07/13 07:22:12;;;;;;;19.17;12.33;;;;;;;32.77;38.92;94821.22;5073108;28;20871;-81
2021/07/13 07:24:39;;;;;;;23.57;13.80;;;;;;;32.80;39.72;94824.22;5073620;28;20500;-82
2021/07/13 07:27:07;;;;;;;15.37;13.60;;;;;;;32.85;38.95;94817.97;5073559;28;20820;-81
2021/07/13 07:29:34;;;;;;;23.83;11.70;;;;;;;33.01;38.92;94813.38;5073381;28;20519;-81
2021/07/13 07:32:01;;;;;;;13.80;12.40;;;;;;;33.24;39.71;94816.31;5038587;28;20445;-81
2021/07/13 07:34:28;;;;;;;22.50;11.77;;;;;;;33.34;38.90;94810.09;5073455;28;20441;-82
2021/07/13 07:36:55;;;;;;;17.10;12.97;;;;;;;33.23;38.91;94811.16;5073644;28;20555;-82
2021/07/13 07:39:22;;;;;;;17.33;13.33;;;;;;;33.13;37.95;94806.56;5073172;28;20873;-81
2021/07/13 07:41:52;;;;;;;16.43;13.43;;;;;;;32.74;38.95;94797.28;5073240;28;20439;-81
2021/07/13 07:44:23;;;;;;;14.23;12.73;;;;;;;32.74;40.12;94803.53;5038720;28;20441;-81
2021/07/13 07:46:50;;;;;;;13.77;12.23;;;;;;;32.65;39.91;94803.25;5073403;28;20913;-81
2021/07/13 07:49:18;;;;;;;19.10;12.80;;;;;;;32.58;40.50;94802.69;5073310;28;20920;-81
2021/07/13 07:51:45;;;;;;;13.20;11.70;;;;;;;32.65;39.92;94796.97;5073229;28;20487;-81
2021/07/13 07:54:12;;;;;;;14.47;11.20;;;;;;;32.79;39.18;94800.84;5072301;28;20956;-81
2021/07/13 07:56:39;;;;;;;13.67;11.20;;;;;;;32.59;38.50;94800.78;5073000;28;20841;-81
2021/07/13 07:59:06;;;;;;;14.60;11.40;;;;;;;32.76;39.13;94800.53;5073565;28;20512;-81
2021/07/13 08:01:34;;;;;;;12.20;11.00;;;;;;;32.93;36.94;94803.84;5073364;28;20893;-81
2021/07/13 08:04:01;;;;;;;18.90;11.70;;;;;;;32.98;36.48;94803.84;5073259;28;20452;-79
2021/07/13 08:16:37;;;;;;;15.27;11.90;;;;;;;32.91;37.45;94789.69;5072944;28;20446;-80
2021/07/13 08:19:05;;;;;;;11.73;10.53;;;;;;;33.08;37.61;94794.88;5072818;28;20502;-80
2021/07/13 08:21:32;;;;;;;11.73;10.57;;;;;;;33.00;35.97;94796.25;5038223;28;20828;-79
2021/07/13 08:23:59;;;;;;;13.93;11.43;;;;;;;32.92;36.61;94792.13;5071281;28;20437;-81
2021/07/13 08:26:26;;;;;;;11.20;10.20;;;;;;;33.11;35.64;94800.56;5072630;28;20473;-80
2021/07/13 08:28:52;;;;;;;17.70;11.63;;;;;;;33.17;37.03;94799.47;5072742;28;20451;-81
2021/07/13 08:31:19;;;;;;;12.93;10.70;;;;;;;33.20;37.55;94789.94;5073124;28;20787;-81
2021/07/13 08:33:48;;;;;;;12.33;11.13;;;;;;;33.24;37.73;94789.13;5073380;28;20436;-81
2021/07/13 08:36:15;;;;;;;12.73;10.67;;;;;;;33.31;37.03;94788.06;5073055;28;20516;-81
2021/07/13 08:42:04;;;;;;;13.73;12.33;;;;;;;33.10;37.35;94785.34;5071800;28;20828;-80
2021/07/13 08:44:31;;;;;;;12.30;11.17;;;;;;;33.21;36.67;94784.22;5037853;28;20448;-79
2021/07/13 08:46:58;;;;;;;13.77;11.17;;;;;;;33.28;36.38;94780.44;5072590;28;20836;-79
2021/07/13 08:49:26;;;;;;;11.43;10.23;;;;;;;33.44;36.19;94776.63;5072924;28;20452;-78
2021/07/13 08:51:53;;;;;;;15.47;11.40;;;;;;;33.44;36.83;94777.44;5072966;28;20810;-78
2021/07/13 08:54:20;;;;;;;15.30;11.57;;;;;;;33.76;36.64;94778.97;5071989;28;20774;-78
2021/07/13 08:56:47;;;;;;;11.43;10.50;;;;;;;33.76;37.32;94773.53;5076387;28;20904;-79
2021/07/13 08:59:15;;;;;;;13.07;11.87;;;;;;;33.83;36.17;94777.63;5076247;28;20451;-78
2021/07/13 09:01:42;;;;;;;12.60;11.03;;;;;;;33.77;36.95;94775.97;5075749;28;20514;-81
2021/07/13 09:04:09;;;;;;;21.00;12.63;;;;;;;33.33;37.03;94775.84;5075696;28;20449;-78
2021/07/13 09:06:56;;;;;;;11.63;10.70;;;;;;;33.14;35.53;94770.09;5075704;28;21002;-78
2021/07/13 09:09:24;;;;;;;12.73;11.47;;;;;;;33.28;35.82;94767.66;4974690;28;20453;-78
2021/07/13 09:12:06;;;;;;;18.67;12.00;;;;;;;33.12;39.36;94772.28;4974860;28;20463;-78
2021/07/13 09:14:50;;;;;;;13.00;11.77;;;;;;;33.23;36.33;94763.00;4974881;28;20458;-78
2021/07/13 09:17:38;;;;;;;12.07;11.07;;;;;;;33.47;35.70;94767.91;4974649;28;20457;-78
2021/07/13 09:20:11;;;;;;;17.40;11.53;;;;;;;33.66;36.52;94779.00;4974575;28;20449;-78
2021/07/13 09:22:41;;;;;;;12.90;11.63;;;;;;;33.76;36.62;94771.63;4974736;28;20468;-77
2021/07/13 09:25:29;;;;;;;13.07;11.77;;;;;;;33.84;36.00;94779.25;4974628;28;20449;-77
2021/07/13 09:28:15;;;;;;;12.47;11.17;;;;;;;33.89;35.89;94774.88;4974253;28;20492;-77
2021/07/13 09:30:43;;;;;;;11.70;10.70;;;;;;;33.65;36.61;94780.09;4974165;28;20441;-77
2021/07/13 09:33:19;;;;;;;12.27;11.20;;;;;;;33.48;34.92;94774.97;4974075;28;20820;-78
2021/07/13 09:36:02;;;;;;;10.70;9.60;;;;;;;33.60;35.72;94775.50;4958456;28;20445;-78
2021/07/13 09:38:32;;;;;;;11.60;10.70;;;;;;;33.67;37.34;94773.28;4973306;28;20454;-80
2021/07/13 09:41:09;;;;;;;12.57;11.47;;;;;;;33.56;36.05;94775.25;4974820;28;20454;-79
2021/07/13 09:43:41;;;;;;;11.77;10.60;;;;;;;33.19;35.71;94774.72;4974138;28;20449;-80
2021/07/13 09:46:26;;;;;;;18.60;11.60;;;;;;;33.41;36.34;94771.72;5005203;28;20444;-78
2021/07/13 09:49:16;;;;;;;11.90;10.63;;;;;;;33.35;35.60;94776.38;5075051;28;20484;-77
2021/07/13 09:51:44;;;;;;;11.33;10.37;;;;;;;33.38;35.38;94761.41;5039648;28;20439;-79
2021/07/13 09:54:46;;;;;;;15.83;12.27;;;;;;;33.26;35.25;94776.09;5075420;28;20445;-79
2021/07/13 09:57:18;;;;;;;12.87;11.60;;;;;;;33.16;35.12;94767.94;4974211;28;20463;-80
2021/07/13 09:59:48;;;;;;;11.37;9.47;;;;;;;33.17;36.56;94761.41;4974218;28;20460;-79
2021/07/13 10:09:00;;;;;;;11.20;10.30;;;;;;;33.39;36.33;94752.16;4973850;28;20566;-79
2021/07/13 10:11:30;;;;;;;12.93;11.70;;;;;;;33.36;38.72;94756.25;4941768;28;20545;-79
2021/07/13 10:13:57;;;;;;;13.83;11.13;;;;;;;33.32;34.81;94754.34;4974036;28;20937;-79
2021/07/13 10:16:25;;;;;;;12.83;11.63;;;;;;;33.34;37.32;94752.16;4973971;28;20434;-79
2021/07/13 10:18:52;;;;;;;11.97;10.83;;;;;;;33.31;33.96;94744.53;4973849;28;20805;-79
2021/07/13 10:21:20;;;;;;;46.30;15.70;;;;;;;33.34;33.59;94746.72;4973920;28;20929;-80
2021/07/13 10:23:48;;;;;;;23.37;11.90;;;;;;;33.36;33.00;94744.53;4973822;28;20438;-79
2021/07/13 10:26:50;;;;;;;12.13;10.97;;;;;;;33.36;32.94;94739.91;4974202;28;20441;-79
2021/07/13 10:29:36;;;;;;;11.40;10.40;;;;;;;33.28;34.30;94735.00;5072404;28;20531;-79
2021/07/13 10:32:05;;;;;;;10.87;9.87;;;;;;;33.33;34.47;94742.38;5074301;28;20441;-78
2021/07/13 10:34:47;;;;;;;10.50;9.60;;;;;;;33.26;34.21;94738.00;5023150;28;20445;-79
2021/07/13 10:54:07;;;;;;;15.63;10.53;;;;;;;33.06;35.35;94724.44;4991429;28;20516;-78
2021/07/13 10:56:34;;;;;;;10.97;9.97;;;;;;;33.17;32.57;94717.88;4992685;28;20936;-77
2021/07/13 10:59:23;;;;;;;44.27;12.73;;;;;;;33.11;31.82;94715.44;4992658;28;20445;-80
2021/07/13 11:02:09;;;;;;;167.40;27.70;;;;;;;33.28;32.85;94720.59;4992506;28;20448;-78
2021/07/13 11:04:36;;;;;;;15.97;11.30;;;;;;;33.30;31.38;94715.69;4992249;28;20937;-78
2021/07/13 11:07:05;;;;;;;11.37;10.47;;;;;;;33.12;29.19;94709.75;4992729;28;20433;-77
2021/07/13 11:09:40;;;;;;;15.57;13.20;;;;;;;33.00;28.32;94705.69;4992371;28;20448;-79
2021/07/13 11:12:13;;;;;;;11.40;10.40;;;;;;;33.07;31.68;94704.31;4992400;28;20472;-80
2021/07/13 11:15:04;;;;;;;12.97;11.20;;;;;;;33.13;31.19;94700.50;5026203;28;20441;-80
2021/07/13 11:17:32;;;;;;;15.17;12.50;;;;;;;32.99;32.53;94699.44;5053942;28;20513;-80
2021/07/13 11:20:07;;;;;;;14.40;12.75;;;;;;;33.20;32.76;94701.00;5053009;28;20443;-78
2021/07/13 11:22:36;;;;;;;14.60;13.00;;;;;;;33.21;32.95;94693.66;5035793;28;20198;-78
2021/07/13 11:25:05;;;;;;;13.47;12.37;;;;;;;33.20;29.96;94697.47;5054358;28;20464;-78
2021/07/13 11:27:31;;;;;;;16.27;13.53;;;;;;;33.32;30.28;94686.34;5053193;28;20999;-79
2021/07/13 11:29:58;;;;;;;12.80;11.67;;;;;;;33.28;29.21;94679.78;5054037;28;20445;-78
2021/07/13 11:32:25;;;;;;;12.90;11.57;;;;;;;33.33;30.51;94682.53;5053439;28;20428;-78
2021/07/13 11:34:52;;;;;;;12.13;10.97;;;;;;;33.09;31.87;94683.09;5053525;28;20445;-81
2021/07/13 11:37:24;;;;;;;13.07;11.73;;;;;;;32.98;31.06;94676.06;5053222;28;20469;-81
2021/07/13 11:39:51;;;;;;;12.70;11.40;;;;;;;32.94;32.67;94674.97;5053372;28;20442;-80
2021/07/13 11:42:19;;;;;;;14.17;12.63;;;;;;;32.81;32.22;94672.81;5053533;28;20442;-79
2021/07/13 11:44:48;;;;;;;15.13;13.70;;;;;;;32.77;30.80;94669.00;5035071;28;20438;-80
2021/07/13 11:47:16;;;;;;;18.53;13.63;;;;;;;32.83;30.54;94667.94;5053975;28;20434;-80
2021/07/13 11:49:43;;;;;;;15.07;13.40;;;;;;;32.95;30.77;94668.44;5053094;28;20474;-79
2021/07/13 11:52:12;;;;;;;13.50;11.60;;;;;;;33.02;30.85;94671.69;5053111;28;20483;-79
2021/07/13 11:54:41;;;;;;;13.70;11.13;;;;;;;33.24;32.73;94664.00;5053294;28;20541;-80
2021/07/13 11:57:10;;;;;;;11.80;10.70;;;;;;;33.31;31.43;94662.91;5000646;28;20504;-80
2021/07/13 11:59:38;;;;;;;10.20;9.23;;;;;;;33.39;29.59;94660.47;5017544;28;20449;-80
2021/07/13 12:02:07;;;;;;;10.40;9.30;;;;;;;33.47;28.49;94662.59;5052853;28;20450;-80
2021/07/13 12:04:38;;;;;;;10.33;9.23;;;;;;;33.53;29.05;94657.94;5053245;28;20944;-79
2021/07/13 12:07:05;;;;;;;13.63;9.30;;;;;;;33.59;29.54;94653.31;5018524;28;20448;-79
2021/07/13 12:09:33;;;;;;;12.10;10.90;;;;;;;33.71;28.56;94656.50;5052824;28;20470;-79
2021/07/13 12:15:23;;;;;;;9.73;8.83;;;;;;;33.90;28.07;94656.72;5052966;28;20443;-80
2021/07/13 12:17:52;;;;;;;12.27;9.60;;;;;;;33.92;28.21;94649.88;5052886;28;20501;-80
2021/07/13 12:20:19;;;;;;;10.53;9.43;;;;;;;33.83;28.76;94646.94;5053090;28;20441;-80
2021/07/13 12:22:46;;;;;;;10.40;9.60;;;;;;;33.85;29.07;94647.47;5052873;28;20434;-80
2021/07/13 12:25:13;;;;;;;11.00;9.10;;;;;;;33.89;29.74;94645.00;5053213;28;20444;-80
2021/07/13 12:27:40;;;;;;;10.57;9.67;;;;;;;33.92;29.86;94640.91;5053080;28;20499;-80
2021/07/13 12:30:14;;;;;;;10.80;10.00;;;;;;;33.91;28.42;94639.28;5056483;28;20418;-80
2021/07/13 12:32:43;;;;;;;14.57;8.63;;;;;;;33.84;28.78;94640.41;5056930;28;20443;-79
2021/07/13 12:35:15;;;;;;;10.77;8.70;;;;;;;33.90;30.02;94637.66;5057062;28;20441;-80
2021/07/13 12:54:33;;;;;;;11.43;9.03;;;;;;;33.86;28.48;94626.50;5075493;28;20929;-81
2021/07/13 12:57:00;;;;;;;11.47;9.70;;;;;;;33.82;26.78;94625.38;5076713;28;20531;-81
2021/07/13 12:59:27;;;;;;;9.40;8.70;;;;;;;33.78;28.20;94625.16;5041562;28;21161;-80
2021/07/13 13:01:54;;;;;;;11.00;9.03;;;;;;;33.84;29.07;94620.53;5076367;28;20459;-81
2021/07/13 13:04:21;;;;;;;12.00;9.50;;;;;;;33.88;27.90;94618.88;5077356;28;20429;-81
2021/07/13 13:06:48;;;;;;;10.23;9.33;;;;;;;33.89;28.52;94622.41;5076455;28;20432;-81
2021/07/13 13:09:15;;;;;;;9.73;8.63;;;;;;;33.85;27.62;94622.97;5075902;28;20478;-81
2021/07/13 13:11:44;;;;;;;9.83;9.03;;;;;;;33.73;29.49;94613.47;5076390;28;20447;-81
2021/07/13 13:14:13;;;;;;;9.63;8.83;;;;;;;33.80;28.18;94617.50;5076169;28;20433;-81
2021/07/13 13:16:41;;;;;;;10.73;9.70;;;;;;;33.75;27.32;94623.00;5075803;28;20483;-80
2021/07/13 13:19:09;;;;;;;12.00;8.73;;;;;;;33.76;28.24;94616.44;5076353;28;20888;-80
2021/07/13 13:21:37;;;;;;;15.23;8.43;;;;;;;33.82;27.61;94620.75;5024530;28;20437;-80
2021/07/13 13:24:08;;;;;;;9.20;8.53;;;;;;;33.79;27.22;94621.31;5075866;28;20430;-81
2021/07/13 13:26:35;;;;;;;8.77;7.90;;;;;;;33.86;26.00;94619.16;5075735;28;20449;-80
2021/07/13 13:29:03;;;;;;;8.87;8.17;;;;;;;33.91;26.42;94617.50;5076003;28;20483;-81
2021/07/13 13:31:30;;;;;;;9.43;8.07;;;;;;;33.92;24.54;94613.66;5075787;28;20438;-80